createdAt,value
2019-03-18T00:02:05.220Z,83.37
2019-03-18T00:05:18.793Z,83.30
2019-03-18T00:08:32.253Z,82.85
2019-03-18T00:11:45.697Z,82.92
2019-03-18T00:15:01.519Z,82.46
2019-03-18T00:18:14.792Z,82.49
2019-03-18T00:21:28.247Z,83.12
2019-03-18T00:24:41.699Z,82.72
2019-03-18T00:27:55.150Z,82.64
2019-03-18T00:31:08.855Z,82.18
2019-03-18T00:34:22.307Z,82.12
2019-03-18T00:37:35.772Z,82.02
2019-03-18T00:40:49.320Z,82.63
2019-03-18T00:44:09.946Z,82.74
2019-03-18T00:47:23.422Z,83.07
2019-03-18T00:50:36.879Z,82.66
2019-03-18T00:53:50.612Z,82.50
2019-03-18T00:57:04.195Z,82.16
2019-03-18T01:00:18.552Z,81.94
2019-03-18T01:03:32.022Z,82.98
2019-03-18T01:06:45.488Z,83.16
2019-03-18T01:09:58.959Z,82.73
2019-03-18T01:13:12.434Z,82.62
2019-03-18T01:16:25.918Z,82.36
2019-03-18T01:19:39.639Z,82.86
2019-03-18T01:22:53.123Z,82.52
2019-03-18T01:26:06.604Z,82.74
2019-03-18T01:29:20.087Z,82.99
2019-03-18T01:32:33.763Z,82.75
2019-03-18T01:35:47.243Z,83.08
2019-03-18T01:39:00.750Z,83.48
2019-03-18T01:42:16.720Z,83.49
2019-03-18T01:45:40.116Z,83.09
2019-03-18T01:48:44.983Z,82.65
2019-03-18T01:51:58.544Z,82.97
2019-03-18T01:55:12.133Z,82.94
2019-03-18T01:58:25.614Z,83.62
2019-03-18T02:01:39.097Z,83.47
2019-03-18T02:04:52.577Z,82.77
2019-03-18T02:08:06.060Z,83.06
2019-03-18T02:11:19.534Z,83.97
2019-03-18T02:14:33.006Z,83.58
2019-03-18T02:17:46.580Z,83.06
2019-03-18T02:21:00.053Z,82.55
2019-03-18T02:24:13.630Z,82.74
2019-03-18T02:27:27.108Z,83.13
2019-03-18T02:30:40.583Z,82.75
2019-03-18T02:33:54.280Z,83.90
2019-03-18T02:37:08.049Z,83.07
2019-03-18T02:40:21.569Z,83.33
2019-03-18T02:43:35.293Z,83.46
2019-03-18T02:46:49.349Z,83.35
2019-03-18T02:50:03.438Z,83.48
2019-03-18T02:53:16.925Z,83.09
2019-03-18T02:56:30.420Z,83.17
2019-03-18T02:59:43.967Z,82.81
2019-03-18T03:02:57.497Z,82.41
2019-03-18T03:06:10.960Z,82.00
2019-03-18T03:09:24.432Z,82.11
2019-03-18T03:12:38.077Z,81.54
2019-03-18T03:15:51.772Z,81.23
2019-03-18T03:19:06.065Z,80.38
2019-03-18T03:22:19.541Z,80.20
2019-03-18T03:25:33.033Z,80.16
2019-03-18T03:28:46.504Z,79.79
2019-03-18T03:31:59.994Z,79.77
2019-03-18T03:35:14.189Z,79.92
2019-03-18T03:38:28.146Z,79.65
2019-03-18T03:41:41.708Z,79.54
2019-03-18T03:44:55.178Z,79.26
2019-03-18T03:48:09.063Z,79.69
2019-03-18T03:51:22.570Z,79.12
2019-03-18T03:54:36.166Z,78.82
2019-03-18T03:57:50.207Z,78.31
2019-03-18T04:01:03.916Z,78.51
2019-03-18T04:04:17.471Z,78.01
2019-03-18T04:07:31.138Z,78.00
2019-03-18T04:10:44.819Z,78.18
2019-03-18T04:13:58.354Z,78.27
2019-03-18T04:17:11.827Z,78.53
2019-03-18T04:20:25.314Z,78.59
2019-03-18T04:23:38.802Z,79.17
2019-03-18T04:26:52.542Z,78.44
2019-03-18T04:30:06.749Z,78.77
2019-03-18T04:33:20.222Z,79.21
2019-03-18T04:36:33.832Z,79.04
2019-03-18T04:39:47.301Z,78.65
2019-03-18T04:43:01.013Z,78.42
2019-03-18T04:46:14.488Z,78.76
2019-03-18T04:49:30.689Z,78.82
2019-03-18T04:52:44.459Z,78.85
2019-03-18T04:55:57.930Z,78.50
2019-03-18T04:59:12.007Z,77.92
2019-03-18T05:02:25.468Z,78.30
2019-03-18T05:05:38.963Z,78.48
2019-03-18T05:08:54.994Z,78.43
2019-03-18T05:12:35.818Z,78.67
2019-03-18T05:15:49.411Z,78.51
2019-03-18T05:19:03.137Z,78.18
2019-03-18T05:22:16.989Z,77.84
2019-03-18T05:25:30.816Z,78.11
2019-03-18T05:28:44.283Z,78.60
2019-03-18T05:31:57.764Z,79.19
2019-03-18T05:35:11.517Z,79.35
2019-03-18T05:38:25.014Z,79.17
2019-03-18T05:41:38.771Z,79.81
2019-03-18T05:44:52.246Z,79.75
2019-03-18T05:48:06.012Z,79.84
2019-03-18T05:51:19.501Z,80.09
2019-03-18T05:54:32.969Z,79.66
2019-03-18T05:57:46.440Z,80.07
2019-03-18T06:00:59.915Z,80.28
2019-03-18T06:07:40.678Z,80.17
2019-03-18T06:10:54.168Z,80.43
2019-03-18T06:14:07.976Z,79.70
2019-03-18T06:17:21.477Z,79.87
2019-03-18T06:20:34.978Z,80.06
2019-03-18T06:23:48.449Z,79.93
2019-03-18T06:27:01.922Z,79.89
2019-03-18T06:30:15.601Z,79.84
2019-03-18T06:33:29.067Z,79.72
2019-03-18T06:36:42.901Z,79.18
2019-03-18T06:39:56.380Z,78.97
2019-03-18T06:43:10.172Z,78.75
2019-03-18T06:46:23.911Z,78.41
2019-03-18T06:49:37.377Z,78.10
2019-03-18T06:52:58.809Z,77.17
2019-03-18T06:56:12.534Z,77.01
2019-03-18T06:59:25.997Z,76.54
2019-03-18T07:02:39.535Z,76.55
2019-03-18T07:05:53.036Z,76.55
2019-03-18T07:09:06.800Z,76.81
2019-03-18T07:12:20.289Z,76.68
2019-03-18T07:15:33.775Z,76.37
2019-03-18T07:18:47.570Z,75.65
2019-03-18T07:22:01.042Z,75.64
2019-03-18T07:25:14.609Z,75.77
2019-03-18T07:28:28.473Z,75.37
2019-03-18T07:31:41.946Z,75.38
2019-03-18T07:34:55.711Z,75.86
2019-03-18T07:38:09.527Z,75.45
2019-03-18T07:41:23.121Z,75.53
2019-03-18T07:44:36.902Z,74.73
2019-03-18T07:47:50.646Z,74.54
2019-03-18T07:51:04.131Z,74.20
2019-03-18T07:54:17.715Z,74.10
2019-03-18T07:57:32.747Z,73.61
2019-03-18T08:00:46.392Z,73.47
2019-03-18T08:04:00.115Z,74.32
2019-03-18T08:07:13.883Z,74.08
2019-03-18T08:10:27.608Z,74.11
2019-03-18T08:13:41.081Z,74.39
2019-03-18T08:16:54.567Z,73.67
2019-03-18T08:20:08.339Z,72.32
2019-03-18T08:23:21.938Z,69.84
2019-03-18T08:26:35.434Z,69.69
2019-03-18T08:29:49.192Z,67.72
2019-03-18T08:33:02.792Z,68.56
2019-03-18T08:36:16.284Z,68.13
2019-03-18T08:39:29.762Z,67.46
2019-03-18T08:42:43.278Z,67.09
2019-03-18T08:45:56.765Z,67.87
2019-03-18T08:49:10.240Z,68.05
2019-03-18T08:52:24.045Z,67.79
2019-03-18T08:55:37.899Z,66.19
2019-03-18T08:58:51.475Z,66.40
2019-03-18T09:02:05.487Z,65.87
2019-03-18T09:05:18.985Z,66.17
2019-03-18T09:08:32.643Z,65.26
2019-03-18T09:11:46.115Z,65.38
2019-03-18T09:14:59.602Z,65.17
2019-03-18T09:18:13.292Z,64.06
2019-03-18T09:21:27.079Z,64.34
2019-03-18T09:24:40.599Z,63.72
2019-03-18T09:27:54.912Z,61.64
2019-03-18T09:31:08.418Z,61.42
2019-03-18T09:34:21.969Z,61.17
2019-03-18T09:37:35.548Z,61.60
2019-03-18T09:40:49.572Z,61.69
2019-03-18T09:44:03.357Z,61.20
2019-03-18T09:47:16.839Z,61.71
2019-03-18T09:50:30.535Z,63.67
2019-03-18T09:53:44.716Z,63.74
2019-03-18T09:56:58.279Z,63.04
2019-03-18T10:00:12.424Z,60.95
2019-03-18T10:03:26.062Z,60.13
2019-03-18T10:06:39.589Z,60.27
2019-03-18T10:09:53.334Z,60.25
2019-03-18T10:13:06.799Z,59.44
2019-03-18T10:16:20.441Z,59.41
2019-03-18T10:19:34.070Z,57.70
2019-03-18T10:22:47.487Z,58.17
2019-03-18T10:26:00.965Z,57.33
2019-03-18T10:29:14.444Z,58.82
2019-03-18T10:32:28.190Z,59.23
2019-03-18T10:35:41.675Z,58.03
2019-03-18T10:38:55.501Z,59.77
2019-03-18T10:42:09.065Z,59.95
2019-03-18T10:45:25.758Z,60.66
2019-03-18T10:48:38.535Z,60.12
2019-03-18T10:51:52.198Z,58.04
2019-03-18T10:55:07.137Z,57.58
2019-03-18T10:58:20.630Z,57.78
2019-03-18T11:01:34.119Z,56.46
2019-03-18T11:04:47.714Z,57.50
2019-03-18T11:08:01.273Z,57.73
2019-03-18T11:11:15.107Z,53.99
2019-03-18T11:14:28.587Z,53.26
2019-03-18T11:17:42.419Z,53.55
2019-03-18T11:20:56.353Z,51.74
2019-03-18T11:24:09.819Z,50.42
2019-03-18T11:27:23.326Z,49.06
2019-03-18T11:30:36.829Z,48.99
2019-03-18T11:33:50.315Z,47.55
2019-03-18T11:37:04.104Z,48.72
2019-03-18T11:40:18.120Z,44.55
2019-03-18T11:43:31.905Z,46.33
2019-03-18T11:46:46.043Z,45.10
2019-03-18T11:50:10.309Z,44.48
2019-03-18T11:53:15.385Z,45.15
2019-03-18T11:56:29.352Z,45.42
2019-03-18T11:59:43.318Z,44.47
2019-03-18T12:02:57.248Z,43.53
2019-03-18T12:06:10.726Z,43.91
2019-03-18T12:09:24.349Z,44.71
2019-03-18T12:12:37.880Z,44.76
2019-03-18T12:15:51.555Z,43.91
2019-03-18T12:19:05.525Z,43.51
2019-03-18T12:22:19.219Z,42.22
2019-03-18T12:25:33.858Z,44.67
2019-03-18T12:28:48.207Z,42.87
2019-03-18T12:32:01.942Z,42.50
2019-03-18T12:35:15.556Z,42.81
2019-03-18T12:38:29.369Z,41.19
2019-03-18T12:41:42.843Z,41.47
2019-03-18T12:44:56.423Z,45.35
2019-03-18T12:48:09.883Z,47.03
2019-03-18T12:51:23.575Z,50.08
2019-03-18T12:54:37.179Z,56.88
2019-03-18T12:57:50.641Z,61.12
2019-03-18T13:01:12.610Z,66.20
2019-03-18T13:04:19.727Z,69.58
2019-03-18T13:07:33.300Z,71.47
2019-03-18T13:10:46.787Z,72.69
2019-03-18T13:14:00.257Z,72.58
2019-03-18T13:17:13.728Z,73.12
2019-03-18T13:20:27.324Z,65.63
2019-03-18T13:23:41.134Z,65.07
2019-03-18T13:26:54.623Z,60.33
2019-03-18T13:30:10.839Z,62.83
2019-03-18T13:33:24.298Z,56.65
2019-03-18T13:36:37.883Z,54.22
2019-03-18T13:39:51.468Z,50.43
2019-03-18T13:43:05.191Z,49.33
2019-03-18T13:46:18.872Z,47.54
2019-03-18T13:49:32.928Z,48.83
2019-03-18T13:52:46.505Z,45.58
2019-03-18T13:56:00.145Z,45.74
2019-03-18T13:59:13.734Z,44.45
2019-03-18T14:02:27.343Z,42.32
2019-03-18T14:05:41.111Z,44.75
2019-03-18T14:08:54.585Z,45.49
2019-03-18T14:12:08.266Z,43.27
2019-03-18T14:15:21.854Z,41.32
2019-03-18T14:18:35.545Z,41.61
2019-03-18T14:21:49.075Z,43.41
2019-03-18T14:25:03.090Z,40.14
2019-03-18T14:28:16.573Z,41.08
2019-03-18T14:31:30.333Z,42.40
2019-03-18T14:34:43.809Z,45.54
2019-03-18T14:37:57.590Z,47.31
2019-03-18T14:41:11.107Z,51.04
2019-03-18T14:44:24.695Z,55.76
2019-03-18T14:47:38.189Z,57.58
2019-03-18T14:50:51.767Z,58.53
2019-03-18T14:54:05.367Z,63.18
2019-03-18T14:57:18.846Z,64.75
2019-03-18T15:00:32.493Z,65.98
2019-03-18T15:03:45.968Z,67.70
2019-03-18T15:06:59.473Z,65.15
2019-03-18T15:10:13.188Z,64.86
2019-03-18T15:13:31.182Z,64.97
2019-03-18T15:16:42.090Z,67.70
2019-03-18T15:19:55.572Z,64.25
2019-03-18T15:23:09.470Z,60.89
2019-03-18T15:26:22.955Z,50.96
2019-03-18T15:29:36.798Z,51.03
2019-03-18T15:32:50.452Z,49.44
2019-03-18T15:36:04.459Z,46.47
2019-03-18T15:39:17.956Z,44.99
2019-03-18T15:42:31.858Z,44.43
2019-03-18T15:45:45.550Z,46.74
2019-03-18T15:48:59.485Z,48.15
2019-03-18T15:52:13.001Z,50.01
2019-03-18T15:55:26.758Z,49.90
2019-03-18T15:58:40.243Z,48.17
2019-03-18T16:01:53.728Z,50.28
2019-03-18T16:05:07.747Z,50.71
2019-03-18T16:08:21.618Z,49.18
2019-03-18T16:11:35.382Z,50.10
2019-03-18T16:14:48.858Z,51.69
2019-03-18T16:18:02.642Z,53.46
2019-03-18T16:21:16.102Z,54.55
2019-03-18T16:24:30.032Z,55.13
2019-03-18T16:27:43.603Z,53.49
2019-03-18T16:30:57.077Z,52.52
2019-03-18T16:34:10.678Z,52.63
2019-03-18T16:37:24.443Z,52.41
2019-03-18T16:40:38.037Z,52.57
2019-03-18T16:43:51.765Z,52.90
2019-03-18T16:47:08.472Z,53.93
2019-03-18T16:50:22.051Z,55.19
2019-03-18T16:53:35.880Z,55.82
2019-03-18T16:56:49.361Z,56.24
2019-03-18T17:00:03.629Z,56.63
2019-03-18T17:03:17.118Z,57.62
2019-03-18T17:06:31.027Z,57.81
2019-03-18T17:09:44.552Z,59.14
2019-03-18T17:12:58.033Z,59.33
2019-03-18T17:16:11.867Z,60.33
2019-03-18T17:19:25.498Z,60.66
2019-03-18T17:22:49.031Z,62.22
2019-03-18T17:25:54.556Z,61.68
2019-03-18T17:29:08.146Z,62.09
2019-03-18T17:32:21.639Z,62.27
2019-03-18T17:35:35.219Z,63.05
2019-03-18T17:38:48.837Z,63.53
2019-03-18T17:42:02.727Z,63.78
2019-03-18T17:45:16.415Z,64.65
2019-03-18T17:48:30.117Z,65.85
2019-03-18T17:51:43.625Z,66.67
2019-03-18T17:54:57.118Z,67.44
2019-03-18T17:58:10.633Z,68.16
2019-03-18T18:01:24.161Z,68.28
2019-03-18T18:04:37.634Z,69.47
2019-03-18T18:07:51.130Z,69.97
2019-03-18T18:11:04.618Z,70.29
2019-03-18T18:14:18.089Z,70.00
2019-03-18T18:17:31.578Z,70.44
2019-03-18T18:20:45.081Z,70.31
2019-03-18T18:23:58.553Z,70.38
2019-03-18T18:27:12.031Z,70.72
2019-03-18T18:30:25.884Z,71.00
2019-03-18T18:33:39.481Z,71.19
2019-03-18T18:36:53.327Z,70.68
2019-03-18T18:40:08.669Z,71.57
2019-03-18T18:43:22.161Z,71.62
2019-03-18T18:46:35.680Z,71.78
2019-03-18T18:49:49.177Z,71.47
2019-03-18T18:53:03.106Z,71.40
2019-03-18T18:56:16.601Z,71.12
2019-03-18T18:59:30.076Z,71.35
2019-03-18T19:02:43.787Z,72.68
2019-03-18T19:05:57.262Z,73.05
2019-03-18T19:09:11.309Z,73.28
2019-03-18T19:12:24.800Z,73.56
2019-03-18T19:15:38.389Z,73.55
2019-03-18T19:18:51.873Z,73.73
2019-03-18T19:22:05.587Z,73.01
2019-03-18T19:25:19.245Z,73.64
2019-03-18T19:28:32.963Z,74.35
2019-03-18T19:31:46.459Z,75.32
2019-03-18T19:34:59.995Z,75.54
2019-03-18T19:38:14.046Z,75.32
2019-03-18T19:41:27.519Z,75.86
2019-03-18T19:44:41.007Z,75.91
2019-03-18T19:47:54.886Z,76.19
2019-03-18T19:51:08.350Z,76.31
2019-03-18T19:54:22.159Z,76.67
2019-03-18T19:57:35.999Z,76.53
2019-03-18T20:00:49.476Z,76.82
2019-03-18T20:04:03.197Z,76.72
2019-03-18T20:07:16.659Z,76.97
2019-03-18T20:10:30.156Z,77.25
2019-03-18T20:13:43.712Z,77.26
2019-03-18T20:16:57.198Z,77.40
2019-03-18T20:20:11.607Z,77.63
2019-03-18T20:23:25.377Z,78.02
2019-03-18T20:26:38.963Z,77.33
2019-03-18T20:29:52.445Z,77.14
2019-03-18T20:33:05.928Z,77.59
2019-03-18T20:36:19.634Z,78.09
2019-03-18T20:39:33.477Z,78.43
2019-03-18T20:42:47.252Z,78.39
2019-03-18T20:46:01.291Z,78.36
2019-03-18T20:49:16.993Z,78.47
2019-03-18T20:52:30.763Z,78.45
2019-03-18T20:55:44.761Z,78.50
2019-03-18T20:58:58.246Z,78.70
2019-03-18T21:02:11.737Z,78.95
2019-03-18T21:05:25.670Z,79.02
2019-03-18T21:08:39.219Z,78.78
2019-03-18T21:11:52.824Z,78.70
2019-03-18T21:15:07.174Z,78.87
2019-03-18T21:18:20.646Z,78.91
2019-03-18T21:21:34.127Z,78.93
2019-03-18T21:24:48.009Z,78.94
2019-03-18T21:28:01.581Z,78.93
2019-03-18T21:31:15.063Z,79.42
2019-03-18T21:34:28.877Z,79.72
2019-03-18T21:37:42.856Z,79.73
2019-03-18T21:40:56.333Z,79.53
2019-03-18T21:44:09.798Z,79.53
2019-03-18T21:47:23.409Z,79.68
2019-03-18T21:50:37.052Z,80.15
2019-03-18T21:57:17.778Z,80.55
2019-03-18T22:00:31.385Z,80.57
2019-03-18T22:03:44.859Z,80.55
2019-03-18T22:06:58.337Z,80.27
2019-03-18T22:10:12.142Z,80.25
2019-03-18T22:13:25.923Z,80.25
2019-03-18T22:16:39.663Z,80.59
2019-03-18T22:19:53.127Z,80.99
2019-03-18T22:23:06.744Z,80.89
2019-03-18T22:26:20.546Z,80.98
2019-03-18T22:29:34.062Z,82.02
2019-03-18T22:32:47.741Z,82.40
2019-03-18T22:36:03.414Z,82.37
2019-03-18T22:39:17.032Z,82.15
2019-03-18T22:42:30.829Z,82.13
2019-03-18T22:45:44.478Z,82.27
2019-03-18T22:48:58.076Z,82.13
2019-03-18T22:52:12.437Z,82.25
2019-03-18T22:55:25.920Z,82.43
2019-03-18T22:58:39.411Z,82.44
2019-03-18T23:01:52.950Z,82.47
2019-03-18T23:05:06.879Z,82.28
2019-03-18T23:08:20.661Z,82.53
2019-03-18T23:11:34.162Z,83.24
2019-03-18T23:14:47.666Z,83.45
2019-03-18T23:18:01.380Z,83.23
2019-03-18T23:21:14.895Z,83.00
2019-03-18T23:24:29.055Z,82.73
2019-03-18T23:27:42.556Z,82.55
2019-03-18T23:30:56.256Z,82.85
2019-03-18T23:34:10.433Z,83.02
2019-03-18T23:37:26.571Z,83.29
2019-03-18T23:40:40.405Z,83.25
2019-03-18T23:43:53.883Z,83.26
2019-03-18T23:47:08.147Z,83.47
2019-03-18T23:50:21.715Z,83.36
2019-03-18T23:53:35.541Z,83.42
2019-03-18T23:56:49.167Z,83.61
